Time;durP1;ratioP1;P1;durP2;ratioP2;P2;SDS_P1;SDS_P2;PMS_P1;PMS_P2;Temp;Humidity;BMP_temperature;BMP_pressure;BME280_temperature;BME280_humidity;BME280_pressure;Samples;Min_cycle;Max_cycle;Signal;HPM_P1;HPM_P2
2023/12/03 00:01:21;;;;;;;10.07;6.73;;;-3.40;94.00;;;;;;5042805;28;20667;-85
2023/12/03 00:03:49;;;;;;;8.03;6.30;;;-3.40;94.90;;;;;;5042551;28;20198;-86
2023/12/03 00:06:17;;;;;;;9.03;6.53;;;-3.50;94.90;;;;;;5044433;28;20209;-87
2023/12/03 00:08:44;;;;;;;9.60;6.37;;;-3.50;94.70;;;;;;5045256;28;20230;-86
2023/12/03 00:11:10;;;;;;;8.37;6.10;;;-3.30;94.60;;;;;;5047631;28;20724;-87
2023/12/03 00:13:37;;;;;;;8.43;6.47;;;-3.40;94.60;;;;;;5047011;28;20205;-86
2023/12/03 00:16:05;;;;;;;8.67;6.20;;;-3.30;95.10;;;;;;5051153;28;20205;-90
2023/12/03 00:18:32;;;;;;;7.87;6.03;;;-3.30;94.70;;;;;;5048131;28;20950;-86
2023/12/03 00:21:00;;;;;;;6.80;5.50;;;-3.30;94.50;;;;;;5044007;28;20217;-86
2023/12/03 00:23:27;;;;;;;8.23;6.30;;;-3.40;94.30;;;;;;5050752;28;20931;-86
2023/12/03 00:25:54;;;;;;;7.20;5.90;;;-3.50;94.20;;;;;;5048731;28;20655;-89
2023/12/03 00:28:21;;;;;;;9.53;6.50;;;-3.60;94.50;;;;;;5043038;28;20293;-86
2023/12/03 00:30:48;;;;;;;8.87;6.30;;;-3.70;94.50;;;;;;5044047;28;20215;-85
2023/12/03 00:33:15;;;;;;;9.10;6.70;;;-3.80;94.90;;;;;;5043198;28;20666;-86
2023/12/03 00:35:41;;;;;;;9.00;6.70;;;-3.80;95.30;;;;;;5043449;28;20198;-86
2023/12/03 00:38:10;;;;;;;10.30;6.90;;;-3.90;95.30;;;;;;5046023;28;20253;-87
2023/12/03 00:40:37;;;;;;;9.67;6.70;;;-4.00;95.60;;;;;;5050980;28;20280;-85
2023/12/03 00:43:04;;;;;;;9.07;6.63;;;-4.00;95.60;;;;;;5042128;28;20206;-86
2023/12/03 00:45:30;;;;;;;9.20;6.53;;;-4.00;95.60;;;;;;5052603;28;20213;-87
2023/12/03 00:47:57;;;;;;;9.77;6.90;;;-4.10;95.60;;;;;;5047358;28;20210;-86
2023/12/03 00:50:24;;;;;;;9.33;7.10;;;-4.20;95.60;;;;;;5046835;28;20263;-86
2023/12/03 00:52:51;;;;;;;10.57;8.23;;;-4.20;95.80;;;;;;5039818;28;20576;-86
2023/12/03 00:55:19;;;;;;;10.90;7.73;;;-4.20;96.10;;;;;;5049479;28;20216;-86
2023/12/03 00:57:46;;;;;;;10.47;7.67;;;-4.10;96.40;;;;;;5048755;28;20221;-86
2023/12/03 01:00:14;;;;;;;8.50;6.77;;;-4.00;96.60;;;;;;5046101;28;20243;-87
2023/12/03 01:02:41;;;;;;;10.37;7.93;;;-4.00;96.00;;;;;;5044792;28;20217;-86
2023/12/03 01:05:13;;;;;;;10.57;7.23;;;-4.00;95.80;;;;;;5049975;28;20658;-86
2023/12/03 01:07:40;;;;;;;9.87;6.97;;;-4.00;95.80;;;;;;5050068;28;20246;-86
2023/12/03 01:10:08;;;;;;;9.93;6.73;;;-4.20;95.80;;;;;;5052883;28;20204;-87
2023/12/03 01:12:36;;;;;;;9.07;7.10;;;-4.30;95.80;;;;;;5048855;28;20205;-86
2023/12/03 01:15:03;;;;;;;10.17;6.33;;;-4.30;96.20;;;;;;5043504;28;20222;-88
2023/12/03 01:17:30;;;;;;;8.83;6.93;;;-4.20;96.10;;;;;;5047916;28;20282;-86
2023/12/03 01:19:57;;;;;;;10.13;7.23;;;-4.20;95.80;;;;;;5043641;28;20285;-92
2023/12/03 01:22:24;;;;;;;9.87;7.17;;;-4.30;95.80;;;;;;5047176;28;20223;-86
2023/12/03 01:24:50;;;;;;;8.57;6.53;;;-4.20;96.20;;;;;;5047520;28;20214;-87
2023/12/03 01:27:17;;;;;;;8.93;7.20;;;-4.10;95.60;;;;;;5042816;28;20209;-87
2023/12/03 01:29:45;;;;;;;9.13;7.03;;;-4.10;95.70;;;;;;5040676;28;20213;-88
2023/12/03 01:32:12;;;;;;;10.17;7.80;;;-4.00;95.20;;;;;;5048585;28;20208;-87
2023/12/03 01:34:39;;;;;;;9.27;7.10;;;-4.20;95.30;;;;;;5044193;28;20209;-88
2023/12/03 01:37:06;;;;;;;9.13;7.03;;;-4.10;95.60;;;;;;5047816;28;20228;-87
2023/12/03 01:39:33;;;;;;;8.27;6.57;;;-4.20;95.60;;;;;;5049302;28;20201;-87
2023/12/03 01:42:00;;;;;;;9.50;6.87;;;-4.20;95.50;;;;;;5044336;28;20224;-89
2023/12/03 01:44:26;;;;;;;9.20;7.00;;;-4.20;95.60;;;;;;5044119;28;20200;-87
2023/12/03 01:46:58;;;;;;;10.57;7.37;;;-4.10;95.30;;;;;;5046900;28;20201;-88
2023/12/03 01:49:25;;;;;;;10.33;7.70;;;-4.10;94.80;;;;;;5046704;28;20209;-88
2023/12/03 01:51:52;;;;;;;9.87;7.37;;;-4.30;95.10;;;;;;5046491;28;20201;-87
2023/12/03 01:54:19;;;;;;;10.03;7.30;;;-4.30;95.30;;;;;;5046076;28;20204;-87
2023/12/03 01:56:47;;;;;;;8.30;6.70;;;-4.40;95.60;;;;;;5047769;28;20200;-88
2023/12/03 01:59:15;;;;;;;11.37;8.10;;;-4.50;95.70;;;;;;5041107;28;20201;-88
2023/12/03 02:01:42;;;;;;;12.37;7.63;;;-4.40;95.70;;;;;;5047162;28;20207;-88
2023/12/03 02:04:10;;;;;;;9.50;7.03;;;-4.50;95.50;;;;;;5045824;28;20207;-88
2023/12/03 02:06:37;;;;;;;10.23;7.47;;;-4.60;95.70;;;;;;5044935;28;20288;-88
2023/12/03 02:09:04;;;;;;;11.93;8.07;;;-4.70;95.90;;;;;;5045371;28;20207;-87
2023/12/03 02:11:31;;;;;;;11.93;7.50;;;-4.60;95.80;;;;;;5049614;28;20196;-87
2023/12/03 02:13:59;;;;;;;9.53;6.63;;;-4.60;95.70;;;;;;5046293;28;20205;-90
2023/12/03 02:16:25;;;;;;;10.80;7.57;;;-4.70;95.60;;;;;;5045307;28;20199;-90
2023/12/03 02:18:52;;;;;;;10.67;7.80;;;-4.80;95.80;;;;;;5047635;28;20322;-87
2023/12/03 02:21:21;;;;;;;11.07;7.80;;;-4.80;96.00;;;;;;5046751;28;20197;-87
2023/12/03 02:23:49;;;;;;;11.23;8.03;;;-4.80;96.20;;;;;;5042258;28;20205;-88
2023/12/03 02:26:16;;;;;;;11.40;8.13;;;-4.90;96.40;;;;;;5044768;28;20972;-87
2023/12/03 02:28:42;;;;;;;10.40;7.40;;;-4.90;96.70;;;;;;5051299;28;20204;-88
2023/12/03 02:31:09;;;;;;;9.53;6.83;;;-4.90;96.60;;;;;;5047443;28;20202;-88
2023/12/03 02:33:37;;;;;;;10.80;8.00;;;-4.80;96.50;;;;;;5050426;28;20670;-87
2023/12/03 02:36:04;;;;;;;10.73;7.50;;;-4.80;96.40;;;;;;5048316;28;20271;-87
2023/12/03 02:38:31;;;;;;;10.57;7.80;;;-4.70;96.30;;;;;;5048357;28;21504;-87
2023/12/03 02:40:59;;;;;;;11.47;7.77;;;-4.80;96.00;;;;;;5044992;28;20222;-88
2023/12/03 02:43:26;;;;;;;10.07;7.50;;;-4.80;96.20;;;;;;5044716;28;20213;-87
2023/12/03 02:45:53;;;;;;;10.93;7.67;;;-4.70;96.00;;;;;;5047997;28;20202;-87
2023/12/03 02:48:19;;;;;;;12.17;8.00;;;-4.60;95.70;;;;;;5046846;28;20857;-87
2023/12/03 02:50:46;;;;;;;10.90;7.97;;;-4.60;95.70;;;;;;5046825;28;20207;-87
2023/12/03 02:53:13;;;;;;;10.53;7.33;;;-4.50;95.50;;;;;;5041938;28;20207;-87
2023/12/03 02:55:40;;;;;;;12.87;8.03;;;-4.50;95.50;;;;;;5044247;28;20207;-87
2023/12/03 02:58:09;;;;;;;11.00;7.50;;;-4.40;95.10;;;;;;5044300;28;20586;-87
2023/12/03 03:00:35;;;;;;;9.03;6.87;;;-4.40;94.70;;;;;;5047244;28;20198;-87
2023/12/03 03:03:02;;;;;;;10.40;7.50;;;-4.40;94.50;;;;;;5047796;28;20250;-87
2023/12/03 03:05:29;;;;;;;11.47;8.27;;;-4.50;94.40;;;;;;5050458;28;20627;-87
2023/12/03 03:07:56;;;;;;;11.00;7.57;;;-4.60;94.60;;;;;;5047606;28;20303;-89
2023/12/03 03:10:23;;;;;;;10.53;7.67;;;-4.70;95.00;;;;;;5047727;28;20203;-88
2023/12/03 03:12:50;;;;;;;10.30;7.70;;;-4.60;94.70;;;;;;5045982;28;20198;-87
2023/12/03 03:15:18;;;;;;;11.20;7.77;;;-4.50;94.30;;;;;;5044051;28;20265;-88
2023/12/03 03:17:45;;;;;;;12.43;7.97;;;-4.50;93.90;;;;;;5037748;28;20252;-88
2023/12/03 03:20:12;;;;;;;11.63;7.90;;;-4.50;93.50;;;;;;5042104;28;20206;-87
2023/12/03 03:22:38;;;;;;;10.73;7.50;;;-4.60;93.60;;;;;;5046516;28;20219;-88
2023/12/03 03:25:06;;;;;;;10.10;7.53;;;-4.60;93.40;;;;;;5049459;28;20571;-88
2023/12/03 03:27:33;;;;;;;10.07;7.60;;;-4.70;93.50;;;;;;5039306;28;20233;-86
2023/12/03 03:30:00;;;;;;;9.87;7.03;;;-4.80;93.20;;;;;;5043960;28;20205;-88
2023/12/03 03:32:28;;;;;;;10.70;7.33;;;-4.80;93.00;;;;;;5037281;28;20219;-88
2023/12/03 03:34:55;;;;;;;9.07;6.90;;;-4.80;93.00;;;;;;5042009;28;20207;-89
2023/12/03 03:37:22;;;;;;;8.70;6.57;;;-4.90;93.00;;;;;;5047416;28;20949;-88
2023/12/03 03:39:48;;;;;;;10.10;7.13;;;-5.10;92.90;;;;;;5045779;28;20231;-89
2023/12/03 03:42:15;;;;;;;8.87;6.70;;;-5.20;92.90;;;;;;5039439;28;20213;-89
2023/12/03 03:44:42;;;;;;;10.07;6.53;;;-5.40;92.90;;;;;;5047561;28;20194;-88
2023/12/03 03:47:09;;;;;;;9.37;6.60;;;-5.30;92.90;;;;;;5045355;28;20211;-90
2023/12/03 03:49:37;;;;;;;9.13;6.60;;;-5.30;92.90;;;;;;5049330;28;20194;-89
2023/12/03 03:52:05;;;;;;;8.60;5.83;;;-5.30;92.90;;;;;;5050281;28;20200;-89
2023/12/03 03:54:32;;;;;;;8.83;6.10;;;-5.30;92.90;;;;;;5046839;28;20565;-89
2023/12/03 03:56:59;;;;;;;8.77;6.00;;;-5.40;92.90;;;;;;5048879;28;20190;-89
2023/12/03 03:59:26;;;;;;;8.93;6.20;;;-5.50;92.90;;;;;;5044101;28;20225;-89
2023/12/03 04:01:53;;;;;;;9.00;6.07;;;-5.70;93.10;;;;;;5051077;28;20611;-93
2023/12/03 04:04:20;;;;;;;9.43;5.67;;;-5.60;93.10;;;;;;5049901;28;20198;-89
2023/12/03 04:06:48;;;;;;;8.43;6.00;;;-5.60;92.80;;;;;;5048166;28;20202;-89
2023/12/03 04:09:15;;;;;;;10.13;6.77;;;-5.60;92.80;;;;;;5047881;28;20315;-89
2023/12/03 04:11:43;;;;;;;8.63;5.97;;;-5.70;92.80;;;;;;5039489;28;20214;-88
2023/12/03 04:14:12;;;;;;;7.87;5.83;;;-5.80;92.80;;;;;;5048553;28;20659;-90
2023/12/03 04:16:39;;;;;;;9.03;6.47;;;-6.00;93.50;;;;;;5050622;28;20191;-90
2023/12/03 04:19:06;;;;;;;8.57;6.13;;;-6.20;93.80;;;;;;5047264;28;20697;-89
2023/12/03 04:21:33;;;;;;;8.63;5.97;;;-6.00;94.40;;;;;;5050517;28;20227;-90
2023/12/03 04:24:01;;;;;;;8.07;5.90;;;-6.00;93.90;;;;;;5049136;28;20194;-89
2023/12/03 04:26:28;;;;;;;8.90;6.10;;;-5.90;93.80;;;;;;5040438;28;20190;-89
2023/12/03 04:28:55;;;;;;;8.03;5.80;;;-5.80;93.60;;;;;;5047238;28;20209;-90
2023/12/03 04:31:25;;;;;;;7.90;6.23;;;-5.80;93.10;;;;;;5048041;28;20273;-89
2023/12/03 04:33:53;;;;;;;8.43;6.10;;;-5.90;93.40;;;;;;5049499;28;20304;-89
2023/12/03 04:36:21;;;;;;;9.03;6.00;;;-5.90;93.90;;;;;;5044253;28;20284;-89
2023/12/03 04:38:48;;;;;;;8.17;6.07;;;-5.90;94.10;;;;;;5045947;28;20610;-89
2023/12/03 04:41:16;;;;;;;8.60;6.07;;;-5.80;94.00;;;;;;5049878;28;20203;-88
2023/12/03 04:43:43;;;;;;;9.20;6.50;;;-5.80;94.00;;;;;;5047977;28;20209;-89
2023/12/03 04:46:10;;;;;;;8.40;5.93;;;-5.80;94.30;;;;;;5047467;28;20669;-91
2023/12/03 04:48:37;;;;;;;7.93;5.90;;;-5.80;94.60;;;;;;5049954;28;20198;-88
2023/12/03 04:51:04;;;;;;;8.73;6.17;;;-5.90;94.60;;;;;;5040297;28;20203;-90
2023/12/03 04:53:31;;;;;;;9.27;6.30;;;-5.90;94.90;;;;;;5046533;28;20668;-90
2023/12/03 04:55:58;;;;;;;9.13;6.10;;;-5.90;94.90;;;;;;5048646;28;20204;-89
2023/12/03 04:58:26;;;;;;;8.43;6.13;;;-5.90;95.20;;;;;;5046659;28;20747;-88
2023/12/03 05:00:53;;;;;;;9.67;6.33;;;-5.90;95.20;;;;;;5052078;28;20190;-88
2023/12/03 05:03:20;;;;;;;8.63;6.07;;;-5.80;95.20;;;;;;5040919;28;20689;-89
2023/12/03 05:05:47;;;;;;;8.07;5.87;;;-5.50;94.70;;;;;;5042360;28;20201;-88
2023/12/03 05:08:14;;;;;;;8.93;6.30;;;-5.30;94.20;;;;;;5045234;28;20220;-90
2023/12/03 05:10:41;;;;;;;9.53;6.37;;;-5.30;93.90;;;;;;5046659;28;20216;-88
2023/12/03 05:13:07;;;;;;;8.30;6.07;;;-5.40;94.00;;;;;;5043043;28;20610;-90
2023/12/03 05:15:36;;;;;;;9.17;6.20;;;-5.30;94.10;;;;;;5048563;28;20204;-88
2023/12/03 05:18:02;;;;;;;8.03;6.10;;;-5.40;94.30;;;;;;5050403;28;20264;-89
2023/12/03 05:20:29;;;;;;;9.23;6.23;;;-5.40;94.70;;;;;;5045624;28;20539;-88
2023/12/03 05:22:56;;;;;;;9.13;6.40;;;-5.40;94.90;;;;;;5052045;28;20218;-88
2023/12/03 05:25:23;;;;;;;8.60;6.17;;;-5.40;95.10;;;;;;5043726;28;20212;-88
2023/12/03 05:27:50;;;;;;;8.90;6.27;;;-5.40;95.00;;;;;;5042449;28;20748;-87
2023/12/03 05:30:16;;;;;;;9.33;6.40;;;-5.50;94.90;;;;;;5048391;28;20207;-88
2023/12/03 05:32:45;;;;;;;9.13;6.50;;;-5.50;95.20;;;;;;5046378;28;20201;-88
2023/12/03 05:35:12;;;;;;;9.07;6.17;;;-5.60;95.30;;;;;;5043371;28;20191;-89
2023/12/03 05:37:40;;;;;;;8.37;6.20;;;-5.60;95.30;;;;;;5041368;28;20204;-88
2023/12/03 05:40:09;;;;;;;10.00;6.90;;;-5.60;95.50;;;;;;5042252;28;20253;-88
2023/12/03 05:42:36;;;;;;;8.70;6.47;;;-5.60;95.50;;;;;;5049289;28;20204;-88
2023/12/03 05:45:04;;;;;;;8.90;6.47;;;-5.70;95.30;;;;;;5041341;28;20210;-89
2023/12/03 05:47:31;;;;;;;8.97;6.57;;;-5.60;95.30;;;;;;5048664;28;20200;-88
2023/12/03 05:50:00;;;;;;;9.03;6.40;;;-5.60;95.20;;;;;;5049832;28;20989;-90
2023/12/03 05:52:27;;;;;;;9.40;6.33;;;-5.60;95.40;;;;;;5038073;28;20269;-88
2023/12/03 05:54:54;;;;;;;9.53;6.13;;;-5.50;95.50;;;;;;5046444;28;20582;-88
2023/12/03 05:57:21;;;;;;;8.63;6.17;;;-5.20;94.90;;;;;;5045289;28;20204;-88
2023/12/03 05:59:48;;;;;;;9.13;6.27;;;-5.10;94.40;;;;;;5045816;28;20231;-88
2023/12/03 06:02:16;;;;;;;8.60;6.77;;;-5.00;94.20;;;;;;5049358;28;20194;-88
2023/12/03 06:04:43;;;;;;;10.17;6.77;;;-5.00;94.20;;;;;;5040777;28;20214;-88
2023/12/03 06:07:11;;;;;;;11.33;6.93;;;-4.90;94.00;;;;;;5050861;28;20360;-88
2023/12/03 06:09:38;;;;;;;9.20;6.67;;;-4.90;93.60;;;;;;5050540;28;20204;-88
2023/12/03 06:12:06;;;;;;;9.23;6.33;;;-5.10;93.90;;;;;;5043182;28;20199;-88
2023/12/03 06:14:33;;;;;;;9.70;6.30;;;-5.10;94.40;;;;;;5044719;28;20195;-88
2023/12/03 06:16:59;;;;;;;9.17;6.50;;;-5.00;94.40;;;;;;5045650;28;20566;-90
2023/12/03 06:19:27;;;;;;;9.13;6.43;;;-4.70;94.00;;;;;;5044523;28;20632;-88
2023/12/03 06:21:54;;;;;;;9.40;6.70;;;-4.60;93.50;;;;;;5049156;28;20223;-87
2023/12/03 06:24:24;;;;;;;9.53;6.63;;;-4.60;93.30;;;;;;5043621;28;20196;-87
2023/12/03 06:26:51;;;;;;;10.80;6.40;;;-4.80;93.80;;;;;;5045867;28;20195;-87
2023/12/03 06:29:18;;;;;;;10.30;6.73;;;-4.90;94.40;;;;;;5047403;28;20202;-87
2023/12/03 06:31:45;;;;;;;9.97;6.67;;;-4.90;94.70;;;;;;5043907;28;20202;-88
2023/12/03 06:34:12;;;;;;;8.80;6.53;;;-4.90;95.20;;;;;;5048548;28;20196;-87
2023/12/03 06:36:39;;;;;;;9.63;6.57;;;-4.80;95.50;;;;;;5041765;28;20254;-86
2023/12/03 06:39:05;;;;;;;8.90;6.00;;;-4.60;95.00;;;;;;5046247;28;20707;-85
2023/12/03 06:41:34;;;;;;;9.97;6.73;;;-4.50;94.50;;;;;;5050196;28;20199;-87
2023/12/03 06:44:01;;;;;;;9.33;6.40;;;-4.60;94.40;;;;;;5047674;28;20205;-86
2023/12/03 06:46:28;;;;;;;10.63;6.73;;;-4.60;94.70;;;;;;5048998;28;20220;-86
2023/12/03 06:48:55;;;;;;;9.03;6.50;;;-4.40;94.70;;;;;;5044633;28;20222;-87
2023/12/03 06:51:22;;;;;;;10.27;7.03;;;-4.50;94.50;;;;;;5043917;28;20199;-87
2023/12/03 06:53:48;;;;;;;9.23;6.40;;;-4.50;94.90;;;;;;5045413;28;20193;-87
2023/12/03 06:56:15;;;;;;;11.00;7.87;;;-4.50;95.00;;;;;;5052942;28;20207;-87
2023/12/03 06:58:44;;;;;;;10.33;6.83;;;-4.30;96.40;;;;;;5050379;28;20197;-86
2023/12/03 07:01:13;;;;;;;11.27;6.80;;;-4.10;96.70;;;;;;5041545;28;20197;-87
2023/12/03 07:03:40;;;;;;;9.03;6.50;;;-4.10;95.40;;;;;;5043392;28;20578;-87
2023/12/03 07:06:07;;;;;;;10.37;7.13;;;-4.10;95.20;;;;;;5047596;28;20206;-86
2023/12/03 07:09:11;;;;;;;10.80;6.80;;;-4.20;95.10;;;;;;5053336;28;20217;-85
2023/12/03 07:11:38;;;;;;;10.27;7.10;;;-4.20;95.30;;;;;;5053653;28;20244;-86
2023/12/03 07:14:07;;;;;;;10.97;7.40;;;-4.10;95.20;;;;;;5049080;28;20222;-87
2023/12/03 07:16:34;;;;;;;9.33;6.87;;;-4.00;95.00;;;;;;5049840;28;20248;-86
2023/12/03 07:19:01;;;;;;;9.60;7.10;;;-4.00;94.90;;;;;;5049306;28;20569;-86
2023/12/03 07:21:28;;;;;;;10.77;7.00;;;-3.90;94.70;;;;;;5040165;28;20222;-86
2023/12/03 07:23:54;;;;;;;11.27;7.63;;;-3.90;94.70;;;;;;5049849;28;20198;-86
2023/12/03 07:26:21;;;;;;;10.30;7.33;;;-3.90;94.90;;;;;;5042755;28;20210;-85
2023/12/03 07:28:48;;;;;;;10.30;7.27;;;-3.90;94.90;;;;;;5050898;28;20216;-86
2023/12/03 07:31:16;;;;;;;10.03;7.37;;;-3.80;94.90;;;;;;5043444;28;20281;-86
2023/12/03 07:33:43;;;;;;;10.97;7.33;;;-3.80;95.10;;;;;;5041371;28;20210;-87
2023/12/03 07:36:11;;;;;;;10.43;7.60;;;-3.80;95.20;;;;;;5053831;28;20205;-86
2023/12/03 07:38:40;;;;;;;12.07;8.00;;;-3.70;95.00;;;;;;5045002;28;20202;-86
2023/12/03 07:41:10;;;;;;;11.40;7.97;;;-3.70;95.00;;;;;;5041192;28;20628;-86
2023/12/03 07:43:37;;;;;;;11.37;8.17;;;-3.70;95.10;;;;;;5045513;28;20218;-86
2023/12/03 07:46:04;;;;;;;12.50;7.90;;;-3.60;95.20;;;;;;5038960;28;20195;-86
2023/12/03 07:48:32;;;;;;;10.40;7.27;;;-3.50;95.10;;;;;;5051156;28;20206;-86
2023/12/03 07:50:59;;;;;;;12.23;8.33;;;-3.20;94.70;;;;;;5044443;28;20194;-86
2023/12/03 07:53:26;;;;;;;10.83;7.73;;;-3.10;94.20;;;;;;5050672;28;20205;-86
2023/12/03 07:55:53;;;;;;;10.47;7.27;;;-3.00;94.10;;;;;;5053105;28;20201;-85
2023/12/03 07:58:20;;;;;;;12.10;7.70;;;-2.70;93.50;;;;;;5047186;28;20210;-85
2023/12/03 08:00:47;;;;;;;10.00;6.90;;;-2.70;93.10;;;;;;5039912;28;20230;-85
2023/12/03 08:03:14;;;;;;;10.50;7.73;;;-2.70;92.80;;;;;;5041742;28;20203;-85
2023/12/03 08:05:43;;;;;;;11.23;7.90;;;-2.60;92.30;;;;;;5044239;28;20248;-86
2023/12/03 08:08:09;;;;;;;11.63;8.00;;;-2.60;92.40;;;;;;5039907;28;20203;-88
2023/12/03 08:10:36;;;;;;;11.80;8.17;;;-2.60;92.20;;;;;;5044749;28;20669;-84
2023/12/03 08:13:03;;;;;;;11.37;8.13;;;-2.60;92.10;;;;;;5045819;28;20221;-83
2023/12/03 08:15:30;;;;;;;11.13;7.60;;;-2.70;92.20;;;;;;5043759;28;20202;-87
2023/12/03 08:17:57;;;;;;;10.67;7.67;;;-2.70;92.50;;;;;;5043370;28;20222;-85
2023/12/03 08:20:24;;;;;;;11.40;7.63;;;-2.60;92.50;;;;;;5042373;28;20229;-90
2023/12/03 08:22:53;;;;;;;9.87;7.30;;;-2.50;92.20;;;;;;5045200;28;20230;-86
2023/12/03 08:25:20;;;;;;;12.37;8.27;;;-2.30;91.90;;;;;;5038562;28;20237;-84
2023/12/03 08:27:46;;;;;;;9.97;7.63;;;-2.10;91.30;;;;;;5043781;28;20194;-85
2023/12/03 08:30:14;;;;;;;11.27;7.83;;;-2.20;91.30;;;;;;5047177;28;20197;-87
2023/12/03 08:32:41;;;;;;;9.60;7.40;;;-2.20;91.40;;;;;;5043630;28;20252;-85
2023/12/03 08:35:08;;;;;;;11.97;8.37;;;-2.20;91.60;;;;;;5047107;28;20201;-86
2023/12/03 08:37:34;;;;;;;10.83;7.77;;;-2.20;91.50;;;;;;5038023;28;20859;-85
2023/12/03 08:40:03;;;;;;;9.87;7.13;;;-2.20;91.70;;;;;;5046581;28;20213;-85
2023/12/03 08:42:30;;;;;;;11.60;7.93;;;-2.30;92.00;;;;;;5042399;28;20264;-83
2023/12/03 08:44:57;;;;;;;11.80;8.20;;;-2.10;91.80;;;;;;5044179;28;20194;-82
2023/12/03 08:47:24;;;;;;;10.03;7.50;;;-2.10;91.50;;;;;;5048939;28;20209;-82
2023/12/03 08:49:51;;;;;;;10.40;7.73;;;-1.90;91.30;;;;;;5046005;28;20304;-82
2023/12/03 08:52:18;;;;;;;9.57;7.33;;;-1.70;91.00;;;;;;5045344;28;20206;-82
2023/12/03 08:54:44;;;;;;;9.10;6.57;;;-1.60;90.80;;;;;;5043960;28;20250;-82
2023/12/03 08:57:13;;;;;;;8.90;7.07;;;-1.40;89.60;;;;;;5048311;28;20255;-81
2023/12/03 08:59:39;;;;;;;9.67;7.00;;;-1.10;88.10;;;;;;5047844;28;20228;-84
2023/12/03 09:02:06;;;;;;;8.90;7.00;;;-0.80;86.20;;;;;;5050481;28;20577;-91
2023/12/03 09:04:33;;;;;;;10.67;7.17;;;-0.70;85.40;;;;;;5045241;28;20205;-85
2023/12/03 09:07:00;;;;;;;8.27;6.50;;;-0.50;85.50;;;;;;5052942;28;20199;-85
2023/12/03 09:09:27;;;;;;;8.47;6.57;;;-0.10;84.50;;;;;;5043513;28;20306;-84
2023/12/03 09:11:53;;;;;;;10.60;6.17;;;0.60;80.90;;;;;;5049144;28;20206;-85
2023/12/03 09:14:22;;;;;;;8.13;6.80;;;1.00;75.60;;;;;;5051472;28;20229;-85
2023/12/03 09:16:48;;;;;;;8.00;6.20;;;1.30;67.30;;;;;;5048668;28;20198;-87
2023/12/03 09:19:15;;;;;;;12.00;6.80;;;1.40;67.30;;;;;;5044223;28;20198;-87
2023/12/03 09:21:42;;;;;;;7.03;6.20;;;1.80;66.40;;;;;;5043050;28;20210;-91
2023/12/03 09:24:09;;;;;;;9.23;6.97;;;2.60;55.20;;;;;;5054482;28;20209;-90
2023/12/03 09:26:36;;;;;;;10.60;6.75;;;2.80;50.10;;;;;;5045406;28;20669;-90
2023/12/03 09:29:04;;;;;;;8.10;6.35;;;3.00;40.70;;;;;;5036859;28;20202;-89
2023/12/03 09:31:32;;;;;;;7.63;6.20;;;3.60;43.10;;;;;;5050172;28;20205;-89
2023/12/03 09:33:59;;;;;;;7.13;6.18;;;4.40;33.00;;;;;;5041964;28;20198;-89
2023/12/03 09:37:02;;;;;;;6.50;5.80;;;4.10;30.90;;;;;;5056459;28;20193;-88
2023/12/03 09:39:29;;;;;;;7.93;5.93;;;4.10;30.60;;;;;;5050540;28;20233;-93
2023/12/03 09:42:01;;;;;;;6.82;6.13;;;3.60;32.90;;;;;;5046830;28;20305;-93
2023/12/03 09:44:34;;;;;;;7.63;6.63;;;3.40;33.20;;;;;;5040746;28;20209;-90
2023/12/03 09:47:05;;;;;;;7.28;6.55;;;2.30;35.90;;;;;;5045249;28;20229;-91
2023/12/03 09:49:32;;;;;;;8.38;6.80;;;1.40;44.50;;;;;;5047403;28;20244;-91
2023/12/03 09:52:00;;;;;;;6.82;6.13;;;1.00;53.70;;;;;;5047386;28;20655;-91
2023/12/03 09:54:28;;;;;;;7.53;6.30;;;1.10;57.80;;;;;;5042022;28;20663;-90
2023/12/03 09:56:59;;;;;;;7.25;6.18;;;1.60;56.20;;;;;;5040627;28;20190;-90
2023/12/03 09:59:27;;;;;;;7.73;6.53;;;1.70;54.20;;;;;;5046702;28;20206;-89
2023/12/03 10:01:56;;;;;;;8.97;6.37;;;1.20;53.60;;;;;;5050353;28;20572;-89
2023/12/03 10:04:24;;;;;;;7.37;5.73;;;1.00;57.70;;;;;;5045374;28;20214;-89
2023/12/03 10:06:57;;;;;;;6.90;5.70;;;1.20;59.30;;;;;;5048979;28;20197;-86
2023/12/03 10:09:25;;;;;;;8.40;6.87;;;0.90;58.10;;;;;;5045700;28;20224;-86
2023/12/03 10:11:56;;;;;;;7.70;6.33;;;0.40;64.40;;;;;;5051819;28;20202;-85
2023/12/03 10:14:23;;;;;;;8.47;6.23;;;0.40;64.90;;;;;;5039984;28;20218;-86
2023/12/03 10:16:50;;;;;;;7.43;6.20;;;0.00;65.50;;;;;;5041184;28;20202;-88
2023/12/03 10:19:24;;;;;;;7.00;6.23;;;-0.20;74.20;;;;;;5046239;28;20225;-87
2023/12/03 10:21:51;;;;;;;7.17;6.10;;;-0.20;76.10;;;;;;5044260;28;20233;-86
2023/12/03 10:24:18;;;;;;;7.53;6.40;;;-0.20;76.40;;;;;;5049134;28;20217;-85
2023/12/03 10:26:51;;;;;;;8.40;6.77;;;-0.20;77.10;;;;;;5049129;28;20197;-88
2023/12/03 10:29:19;;;;;;;10.33;6.57;;;0.00;77.10;;;;;;5039980;28;20229;-91
2023/12/03 10:31:47;;;;;;;8.73;6.73;;;0.00;75.50;;;;;;5047232;28;20240;-86
2023/12/03 10:34:14;;;;;;;6.57;5.87;;;0.10;75.90;;;;;;5038854;28;20203;-88
2023/12/03 10:36:43;;;;;;;7.37;6.57;;;0.40;76.10;;;;;;5037556;28;20197;-88
2023/12/03 10:39:12;;;;;;;7.60;6.80;;;0.80;71.90;;;;;;5033868;28;20210;-88
2023/12/03 10:41:40;;;;;;;6.80;6.00;;;1.20;65.70;;;;;;5047833;28;20226;-87
2023/12/03 10:44:07;;;;;;;7.55;6.07;;;1.70;61.80;;;;;;5043924;28;20219;-88
2023/12/03 10:46:41;;;;;;;7.53;6.60;;;2.10;62.30;;;;;;5047814;28;20255;-87
2023/12/03 10:49:10;;;;;;;7.63;6.82;;;2.10;53.70;;;;;;5044901;28;20200;-88
2023/12/03 10:51:41;;;;;;;7.47;6.78;;;2.10;57.80;;;;;;5047338;28;20210;-88
2023/12/03 10:54:09;;;;;;;7.40;6.70;;;2.00;54.40;;;;;;5048815;28;20194;-88
2023/12/03 10:56:36;;;;;;;7.90;6.93;;;1.80;56.20;;;;;;5045140;28;20217;-89
2023/12/03 10:59:08;;;;;;;7.80;7.00;;;2.00;55.30;;;;;;5050920;28;20198;-88
2023/12/03 11:01:39;;;;;;;7.15;6.45;;;1.70;59.40;;;;;;5047199;28;20206;-88
2023/12/03 11:04:13;;;;;;;9.35;7.50;;;1.20;61.80;;;;;;5045374;28;20252;-87
2023/12/03 11:06:42;;;;;;;8.85;7.70;;;1.20;67.10;;;;;;5040543;28;20201;-86
2023/12/03 11:09:10;;;;;;;9.23;7.40;;;1.30;65.90;;;;;;5042879;28;20222;-89
2023/12/03 11:11:38;;;;;;;8.97;7.50;;;1.10;66.50;;;;;;5035688;28;20206;-87
2023/12/03 11:14:05;;;;;;;9.37;7.53;;;1.00;67.60;;;;;;5041773;28;20713;-85
2023/12/03 11:16:40;;;;;;;8.20;7.27;;;0.80;71.90;;;;;;5037531;28;20203;-86
2023/12/03 11:19:13;;;;;;;9.37;7.97;;;0.60;75.00;;;;;;5040529;28;20216;-87
2023/12/03 11:21:48;;;;;;;10.93;8.13;;;0.60;76.50;;;;;;5045038;28;20230;-85
2023/12/03 11:24:54;;;;;;;10.37;8.17;;;0.80;76.20;;;;;;5046651;28;20201;-85
2023/12/03 11:27:25;;;;;;;10.03;8.00;;;0.80;74.80;;;;;;5046096;28;20208;-85
2023/12/03 11:29:53;;;;;;;10.70;7.83;;;0.80;76.00;;;;;;5039817;28;20202;-88
2023/12/03 11:32:22;;;;;;;9.40;7.73;;;0.90;75.80;;;;;;5039085;28;20229;-86
2023/12/03 11:34:56;;;;;;;13.23;8.80;;;0.90;76.20;;;;;;5043278;28;20579;-84
2023/12/03 11:37:25;;;;;;;9.77;8.33;;;1.00;76.50;;;;;;5044193;28;20268;-86
2023/12/03 11:39:55;;;;;;;11.30;8.87;;;1.10;76.70;;;;;;5042820;28;20194;-85
2023/12/03 11:42:24;;;;;;;9.93;8.27;;;1.10;74.40;;;;;;5039822;28;20198;-85
2023/12/03 11:44:51;;;;;;;9.73;7.90;;;0.90;74.10;;;;;;5041481;28;20194;-88
2023/12/03 11:47:19;;;;;;;10.97;8.30;;;0.70;75.80;;;;;;5042398;28;20210;-85
2023/12/03 11:49:46;;;;;;;10.10;8.40;;;0.80;76.30;;;;;;5043843;28;20201;-86
2023/12/03 11:52:14;;;;;;;12.03;8.10;;;0.90;76.50;;;;;;5041734;28;20205;-86
2023/12/03 11:54:54;;;;;;;11.53;8.67;;;0.80;77.80;;;;;;5049337;28;20198;-86
2023/12/03 11:57:24;;;;;;;13.93;8.63;;;0.80;75.40;;;;;;5044596;28;20669;-87
2023/12/03 11:59:51;;;;;;;12.20;8.77;;;0.70;79.00;;;;;;5049686;28;20209;-85
2023/12/03 12:02:18;;;;;;;11.70;8.67;;;0.50;77.20;;;;;;5048848;28;20221;-88
2023/12/03 12:04:45;;;;;;;11.37;8.57;;;0.50;78.90;;;;;;5044675;28;20226;-86
2023/12/03 12:07:16;;;;;;;13.80;9.03;;;0.80;79.10;;;;;;5049000;28;20205;-88
2023/12/03 12:09:43;;;;;;;12.00;9.10;;;0.60;78.90;;;;;;5047983;28;20201;-87
2023/12/03 12:12:10;;;;;;;10.70;8.83;;;0.60;81.00;;;;;;5054732;28;20208;-88
2023/12/03 12:14:39;;;;;;;10.57;8.47;;;0.70;80.00;;;;;;5053450;28;20572;-86
2023/12/03 12:17:09;;;;;;;11.10;8.40;;;0.60;79.10;;;;;;5052170;28;20217;-84
2023/12/03 12:19:44;;;;;;;12.73;9.17;;;0.50;80.30;;;;;;5051063;28;20205;-85
2023/12/03 12:22:11;;;;;;;10.43;8.30;;;0.70;81.20;;;;;;5047460;28;20257;-86
2023/12/03 12:24:38;;;;;;;11.23;8.90;;;0.70;82.20;;;;;;5050530;28;20198;-86
2023/12/03 12:27:05;;;;;;;11.10;8.20;;;1.30;78.10;;;;;;5048096;28;20202;-91
2023/12/03 12:29:33;;;;;;;10.80;8.70;;;1.70;73.40;;;;;;5047269;28;20560;-84
2023/12/03 12:32:02;;;;;;;11.27;8.57;;;1.70;70.40;;;;;;5048594;28;20201;-82
2023/12/03 12:34:30;;;;;;;14.10;9.40;;;1.20;70.70;;;;;;5046584;28;20194;-86
2023/12/03 12:37:06;;;;;;;10.33;8.10;;;0.80;77.00;;;;;;5050105;28;20198;-86
2023/12/03 12:39:33;;;;;;;11.23;8.40;;;1.20;77.60;;;;;;5041557;28;20204;-87
2023/12/03 12:42:01;;;;;;;12.67;8.47;;;1.00;77.90;;;;;;5054667;28;20214;-84
2023/12/03 12:44:41;;;;;;;13.03;9.00;;;0.70;80.40;;;;;;5050032;28;20642;-86
2023/12/03 12:47:10;;;;;;;11.23;8.60;;;0.60;81.60;;;;;;5044081;28;20194;-82
2023/12/03 12:49:39;;;;;;;9.47;7.67;;;0.80;79.80;;;;;;5050021;28;20206;-83